Time;durP1;ratioP1;P1;durP2;ratioP2;P2;SDS_P1;SDS_P2;PMS_P1;PMS_P2;Temp;Humidity;BMP_temperature;BMP_pressure;BME280_temperature;BME280_humidity;BME280_pressure;Samples;Min_cycle;Max_cycle;Signal;HPM_P1;HPM_P2
2021/03/02 00:02:17;;;;;;;47.43;27.95;;;;;;;1.86;100.00;102195.47;253383;1112;104842;-79
2021/03/02 00:07:19;;;;;;;57.00;36.38;;;;;;;1.90;100.00;102190.32;256966;1112;104938;-79
2021/03/02 00:12:20;;;;;;;50.05;29.25;;;;;;;1.87;100.00;102194.62;257800;1111;104195;-79
2021/03/02 00:17:30;;;;;;;40.67;21.68;;;;;;;1.88;100.00;102197.27;253527;1111;104368;-79
2021/03/02 00:22:40;;;;;;;50.88;31.65;;;;;;;1.89;100.00;102192.92;252934;1110;104507;-78
2021/03/02 00:27:42;;;;;;;49.30;31.62;;;;;;;1.84;100.00;102189.27;252882;1111;105030;-79
2021/03/02 00:32:46;;;;;;;53.60;35.07;;;;;;;1.90;100.00;102192.08;253174;1110;104265;-80
2021/03/02 00:37:48;;;;;;;46.13;28.32;;;;;;;1.86;100.00;102195.47;253443;1112;104325;-79
2021/03/02 00:42:50;;;;;;;45.10;28.00;;;;;;;1.73;100.00;102186.36;253213;1112;104315;-78
2021/03/02 00:47:53;;;;;;;42.35;26.90;;;;;;;1.77;100.00;102185.61;253246;1112;104427;-78
2021/03/02 00:52:55;;;;;;;35.47;22.57;;;;;;;1.84;100.00;102176.12;253171;1111;105919;-79
2021/03/02 00:57:56;;;;;;;40.50;23.20;;;;;;;1.77;100.00;102166.30;253268;1111;104274;-80
2021/03/02 01:02:57;;;;;;;41.75;23.55;;;;;;;1.78;100.00;102158.47;253326;1109;104325;-79
2021/03/02 01:07:59;;;;;;;37.90;20.95;;;;;;;1.70;100.00;102141.61;253734;1111;104650;-79
2021/03/02 01:13:00;;;;;;;32.38;19.42;;;;;;;1.65;100.00;102124.84;253694;1112;104405;-78
2021/03/02 01:18:01;;;;;;;39.48;27.62;;;;;;;1.85;100.00;102126.21;253704;1112;104361;-79
2021/03/02 01:23:02;;;;;;;39.03;23.30;;;;;;;1.73;100.00;102120.63;253331;1111;104274;-78
2021/03/02 01:28:04;;;;;;;47.03;30.70;;;;;;;1.84;100.00;102126.15;253182;1111;104860;-78
2021/03/02 01:33:05;;;;;;;46.23;30.82;;;;;;;1.92;100.00;102114.08;253210;1111;104341;-78
2021/03/02 01:38:07;;;;;;;44.98;28.05;;;;;;;1.78;100.00;102120.75;253375;1112;104235;-78
2021/03/02 01:43:09;;;;;;;33.35;18.70;;;;;;;1.71;100.00;102115.34;253388;1111;106178;-79
2021/03/02 01:48:11;;;;;;;45.73;28.98;;;;;;;1.72;100.00;102109.23;253184;1109;104396;-78
2021/03/02 01:53:12;;;;;;;46.20;26.15;;;;;;;1.79;100.00;102099.77;254057;1112;104354;-78
2021/03/02 01:58:13;;;;;;;48.30;28.95;;;;;;;1.82;100.00;102088.43;254278;1112;104347;-79
2021/03/02 02:03:41;;;;;;;46.40;28.90;;;;;;;1.81;100.00;102084.89;253256;1112;104361;-79
2021/03/02 02:08:52;;;;;;;45.95;28.25;;;;;;;1.82;100.00;102077.91;252876;1111;104472;-79
2021/03/02 02:14:01;;;;;;;59.08;36.48;;;;;;;1.89;100.00;102069.31;252885;1111;104361;-80
2021/03/02 02:19:04;;;;;;;51.58;30.65;;;;;;;1.87;100.00;102074.52;253169;1112;104343;-79
2021/03/02 02:24:23;;;;;;;54.42;34.18;;;;;;;1.87;100.00;102068.38;254051;1112;104647;-79
2021/03/02 02:29:30;;;;;;;42.60;25.08;;;;;;;1.83;100.00;102062.16;253159;1110;104406;-79
2021/03/02 02:34:35;;;;;;;55.60;34.95;;;;;;;1.87;100.00;102052.59;253250;1112;104405;-79
2021/03/02 02:39:39;;;;;;;49.05;30.90;;;;;;;1.80;100.00;102050.69;255329;1111;104207;-78
2021/03/02 02:44:41;;;;;;;44.95;28.45;;;;;;;1.86;100.00;102035.04;255082;1112;104354;-79
2021/03/02 02:49:45;;;;;;;51.65;32.90;;;;;;;1.93;100.00;102031.69;253232;1112;104392;-80
2021/03/02 02:54:47;;;;;;;47.67;28.60;;;;;;;1.93;100.00;102041.34;252845;1112;104328;-80
2021/03/02 02:59:51;;;;;;;51.30;32.48;;;;;;;1.94;100.00;102035.23;253087;1112;104290;-80
2021/03/02 03:05:11;;;;;;;48.05;32.00;;;;;;;1.99;100.00;102041.47;252957;1112;104702;-79
2021/03/02 03:10:14;;;;;;;54.88;32.80;;;;;;;1.97;100.00;102035.28;253707;1111;104333;-79
2021/03/02 03:15:18;;;;;;;42.70;26.68;;;;;;;1.88;100.00;102059.64;253930;1110;104273;-80
2021/03/02 03:20:22;;;;;;;54.70;30.45;;;;;;;1.99;100.00;102068.64;253215;1111;104271;-80
2021/03/02 03:25:23;;;;;;;43.90;28.50;;;;;;;1.98;100.00;102061.61;252828;1112;104386;-80
2021/03/02 03:30:27;;;;;;;49.20;32.83;;;;;;;2.03;100.00;102064.34;253339;1111;104357;-79
2021/03/02 03:35:29;;;;;;;46.85;26.97;;;;;;;1.91;100.00;102075.47;253858;1111;104830;-80
2021/03/02 03:40:31;;;;;;;42.62;26.62;;;;;;;1.96;100.00;102058.08;253813;1112;104256;-79
2021/03/02 03:45:32;;;;;;;41.77;24.05;;;;;;;1.97;100.00;102070.37;253612;1112;104948;-80
2021/03/02 03:50:33;;;;;;;50.17;31.52;;;;;;;1.96;100.00;102058.08;253259;1112;104602;-80
2021/03/02 03:55:40;;;;;;;42.93;26.30;;;;;;;1.99;100.00;102062.52;252577;1111;104328;-78
2021/03/02 04:00:42;;;;;;;52.38;32.28;;;;;;;1.97;100.00;102067.75;253390;1111;104348;-79
2021/03/02 04:05:45;;;;;;;45.30;30.92;;;;;;;2.00;100.00;102059.91;253521;1111;104296;-79
2021/03/02 04:10:47;;;;;;;48.33;27.82;;;;;;;2.04;100.00;102053.84;254692;1112;104325;-79
2021/03/02 04:15:48;;;;;;;51.37;32.95;;;;;;;2.04;100.00;102058.23;256965;1110;104711;-79
2021/03/02 04:20:49;;;;;;;44.60;26.73;;;;;;;2.01;100.00;102045.03;252825;1110;104274;-81
2021/03/02 04:25:51;;;;;;;51.60;32.83;;;;;;;2.11;100.00;102027.70;253965;1112;104730;-80
2021/03/02 04:30:52;;;;;;;51.60;34.48;;;;;;;2.12;100.00;102014.56;252833;1110;104262;-80
2021/03/02 04:35:53;;;;;;;58.58;36.53;;;;;;;2.15;100.00;102011.98;253115;1112;104419;-79
2021/03/02 04:40:54;;;;;;;54.48;31.73;;;;;;;2.14;100.00;102028.66;253298;1111;104354;-79
2021/03/02 04:45:55;;;;;;;55.83;35.97;;;;;;;2.18;100.00;102013.81;253220;1110;104364;-78
2021/03/02 04:50:57;;;;;;;55.85;34.30;;;;;;;2.22;100.00;102002.48;253279;1112;104323;-79
2021/03/02 04:55:58;;;;;;;44.55;27.60;;;;;;;2.17;100.00;102002.38;253257;1110;104252;-79
2021/03/02 05:00:59;;;;;;;50.75;31.02;;;;;;;2.10;100.00;102000.48;253270;1112;104418;-79
2021/03/02 05:06:00;;;;;;;56.37;36.27;;;;;;;2.22;100.00;101999.85;253248;1112;104344;-79
2021/03/02 05:11:02;;;;;;;45.75;28.70;;;;;;;2.22;100.00;101997.22;253587;1112;104313;-79
2021/03/02 05:16:03;;;;;;;56.68;32.60;;;;;;;2.19;100.00;102000.69;253270;1112;104269;-79
2021/03/02 05:21:05;;;;;;;55.90;36.30;;;;;;;2.25;100.00;101996.39;253188;1112;104722;-80
2021/03/02 05:26:06;;;;;;;43.02;27.13;;;;;;;2.15;100.00;102005.84;254064;1111;104415;-79
2021/03/02 05:31:08;;;;;;;41.70;25.03;;;;;;;2.23;100.00;101994.61;253535;1110;104255;-79
2021/03/02 05:36:09;;;;;;;57.40;37.83;;;;;;;2.19;100.00;101982.27;253378;1111;105307;-79
2021/03/02 05:41:11;;;;;;;45.70;25.90;;;;;;;2.31;100.00;102000.05;253447;1112;104291;-80
2021/03/02 05:46:12;;;;;;;40.23;23.63;;;;;;;2.23;100.00;101988.47;253061;1112;104245;-79
2021/03/02 05:51:16;;;;;;;50.05;31.57;;;;;;;2.22;100.00;101989.33;253277;1110;104405;-80
2021/03/02 05:56:17;;;;;;;43.35;27.90;;;;;;;2.31;100.00;101996.51;253635;1112;104348;-79
2021/03/02 06:01:19;;;;;;;37.10;23.65;;;;;;;2.22;100.00;101989.33;253529;1112;104277;-80
2021/03/02 06:06:20;;;;;;;46.85;27.42;;;;;;;2.27;100.00;101990.30;254589;1111;104277;-80
2021/03/02 06:11:30;;;;;;;47.80;28.32;;;;;;;2.22;100.00;101992.83;257557;1111;104227;-79
2021/03/02 06:16:50;;;;;;;49.10;28.30;;;;;;;2.28;100.00;101992.08;260135;1111;101714;-79
2021/03/02 06:21:52;;;;;;;50.58;29.32;;;;;;;2.19;100.00;101991.88;256818;1111;104252;-79
2021/03/02 06:27:13;;;;;;;47.50;29.87;;;;;;;2.29;100.00;102000.88;253586;1112;104345;-79
2021/03/02 06:32:14;;;;;;;35.17;19.27;;;;;;;2.29;100.00;101998.25;253818;1112;104588;-80
2021/03/02 06:37:15;;;;;;;50.67;27.98;;;;;;;2.32;100.00;102008.81;253917;1111;104328;-79
2021/03/02 06:42:18;;;;;;;50.65;28.77;;;;;;;2.43;100.00;102001.13;253757;1111;104443;-80
2021/03/02 06:47:49;;;;;;;55.20;34.33;;;;;;;2.50;100.00;101997.77;253332;1111;104329;-79
2021/03/02 06:52:51;;;;;;;59.50;34.10;;;;;;;2.31;100.00;101997.42;253402;1112;112221;-78
2021/03/02 06:58:30;;;;;;;45.35;25.40;;;;;;;2.19;100.00;101986.63;253646;1112;104267;-80
2021/03/02 07:03:34;;;;;;;53.67;32.40;;;;;;;2.34;100.00;101976.41;253311;1112;120291;-78
2021/03/02 07:08:39;;;;;;;60.33;35.90;;;;;;;2.39;100.00;101974.77;253271;1111;104268;-79
2021/03/02 07:13:40;;;;;;;51.20;30.92;;;;;;;2.37;100.00;101960.69;253361;1112;104345;-78
2021/03/02 07:18:42;;;;;;;55.88;32.58;;;;;;;2.48;100.00;101958.25;253229;1111;104351;-78
2021/03/02 07:23:45;;;;;;;60.00;34.50;;;;;;;2.45;100.00;101947.66;253252;1112;104720;-79
2021/03/02 07:28:47;;;;;;;54.18;32.70;;;;;;;2.55;100.00;101949.61;253293;1110;104258;-81
2021/03/02 07:33:50;;;;;;;49.85;27.98;;;;;;;2.65;100.00;101955.92;254026;1112;104458;-79
2021/03/02 07:39:13;;;;;;;62.55;37.85;;;;;;;2.67;100.00;101975.28;254109;1112;104386;-78
2021/03/02 07:44:16;;;;;;;53.30;32.50;;;;;;;2.65;100.00;101971.72;253773;1111;104388;-80
2021/03/02 07:49:23;;;;;;;63.42;37.03;;;;;;;2.80;100.00;101981.63;253837;1112;104749;-77
2021/03/02 07:54:24;;;;;;;52.00;31.70;;;;;;;2.85;100.00;102001.03;253932;1111;104277;-81
2021/03/02 07:59:25;;;;;;;49.10;27.42;;;;;;;2.83;100.00;102012.41;254342;1112;104421;-80
2021/03/02 08:04:27;;;;;;;43.23;24.27;;;;;;;2.71;100.00;101998.16;256042;1112;104277;-79
2021/03/02 08:09:29;;;;;;;48.10;29.02;;;;;;;2.86;100.00;101987.00;255250;1111;104409;-77
2021/03/02 08:14:31;;;;;;;45.67;26.62;;;;;;;2.96;100.00;101990.68;254956;1112;104262;-78
2021/03/02 08:19:41;;;;;;;55.85;34.18;;;;;;;3.17;100.00;101976.11;253944;1112;105386;-79
2021/03/02 08:25:09;;;;;;;54.90;35.15;;;;;;;3.27;100.00;101988.56;254239;1112;104414;-79
2021/03/02 08:30:18;;;;;;;58.23;32.93;;;;;;;3.13;100.00;101996.26;253638;1112;104348;-79
2021/03/02 08:35:21;;;;;;;45.98;26.77;;;;;;;3.19;100.00;101998.99;253402;1111;104636;-79
2021/03/02 08:40:25;;;;;;;52.40;34.20;;;;;;;3.25;100.00;101989.41;253318;1111;104377;-81
2021/03/02 08:45:27;;;;;;;54.80;33.33;;;;;;;3.31;100.00;101993.00;253392;1112;104364;-78
2021/03/02 08:50:35;;;;;;;52.25;30.48;;;;;;;3.45;100.00;101992.36;253398;1112;104342;-79
2021/03/02 08:55:37;;;;;;;50.30;30.03;;;;;;;3.38;100.00;101999.27;254646;1112;104337;-80
2021/03/02 09:00:39;;;;;;;53.75;30.77;;;;;;;3.61;100.00;101999.61;253619;1112;104265;-79
2021/03/02 09:05:40;;;;;;;48.68;30.00;;;;;;;3.62;100.00;102004.02;253608;1111;104262;-79
2021/03/02 09:10:41;;;;;;;55.63;33.45;;;;;;;3.62;100.00;102004.02;253662;1111;104705;-79
2021/03/02 09:15:43;;;;;;;59.80;36.43;;;;;;;3.85;100.00;102000.83;253643;1110;104393;-78
2021/03/02 09:20:49;;;;;;;40.45;22.40;;;;;;;3.71;100.00;102037.55;253685;1112;104265;-79
2021/03/02 09:25:51;;;;;;;46.33;28.90;;;;;;;3.88;100.00;102019.33;253944;1111;104472;-78
2021/03/02 09:30:53;;;;;;;53.83;32.93;;;;;;;3.93;100.00;102025.58;254157;1112;104331;-79
2021/03/02 09:35:54;;;;;;;50.63;31.20;;;;;;;3.98;100.00;102025.64;253836;1112;104297;-79
2021/03/02 09:40:55;;;;;;;49.50;27.80;;;;;;;3.90;100.00;102022.01;253708;1111;105078;-80
2021/03/02 09:45:56;;;;;;;44.05;25.77;;;;;;;4.29;100.00;102032.20;253548;1111;104341;-78
2021/03/02 09:50:58;;;;;;;48.23;26.77;;;;;;;4.10;100.00;102035.45;253519;1111;104274;-78
2021/03/02 09:55:59;;;;;;;51.18;31.60;;;;;;;4.24;100.00;102039.15;253392;1110;104299;-80
2021/03/02 10:01:03;;;;;;;43.92;22.42;;;;;;;4.12;100.00;102031.08;253378;1109;104261;-80
2021/03/02 10:06:05;;;;;;;51.20;32.83;;;;;;;4.57;100.00;102037.80;254037;1110;104348;-79
2021/03/02 10:11:13;;;;;;;45.80;28.80;;;;;;;4.57;100.00;102031.62;253677;1112;104290;-78
2021/03/02 10:16:35;;;;;;;49.27;24.67;;;;;;;4.42;100.00;102040.27;253832;1112;104319;-77
2021/03/02 10:21:36;;;;;;;49.03;31.35;;;;;;;4.47;100.00;102038.55;254469;1112;104379;-78
2021/03/02 10:26:38;;;;;;;51.68;28.83;;;;;;;4.53;100.00;102019.26;254444;1111;104999;-78
2021/03/02 10:31:40;;;;;;;47.90;30.08;;;;;;;4.98;100.00;102020.58;258504;1112;104180;-76
2021/03/02 10:36:43;;;;;;;42.17;27.55;;;;;;;5.04;100.00;102001.26;259158;1112;102775;-78
2021/03/02 10:41:46;;;;;;;42.65;25.27;;;;;;;5.09;100.00;101994.24;253965;1111;104301;-77
2021/03/02 10:46:48;;;;;;;42.05;24.00;;;;;;;5.19;100.00;101998.75;253438;1111;104265;-79
2021/03/02 10:51:50;;;;;;;48.13;29.65;;;;;;;5.32;100.00;101989.13;253221;1112;104335;-79
2021/03/02 10:56:51;;;;;;;47.70;30.40;;;;;;;5.61;100.00;101990.22;253602;1111;105662;-78
2021/03/02 11:01:52;;;;;;;40.30;26.82;;;;;;;5.47;100.00;101980.44;253489;1109;104242;-79
2021/03/02 11:06:54;;;;;;;37.95;24.85;;;;;;;5.81;100.00;101975.34;253588;1111;104335;-78
2021/03/02 11:11:55;;;;;;;38.98;26.50;;;;;;;6.27;100.00;101960.56;253437;1112;104370;-78
2021/03/02 11:16:56;;;;;;;41.13;26.60;;;;;;;6.37;100.00;101951.74;253140;1111;104731;-79
2021/03/02 11:21:57;;;;;;;40.92;26.52;;;;;;;6.62;100.00;101960.62;253075;1111;104383;-78
2021/03/02 11:26:59;;;;;;;32.65;21.90;;;;;;;6.97;100.00;101948.30;253193;1112;104310;-78
2021/03/02 11:32:00;;;;;;;36.55;24.27;;;;;;;7.27;100.00;101949.13;253168;1111;104313;-78
2021/03/02 11:37:02;;;;;;;46.20;30.83;;;;;;;7.59;99.59;101930.49;253392;1112;104803;-78
2021/03/02 11:42:03;;;;;;;29.25;18.10;;;;;;;9.35;88.05;101940.89;253453;1111;104267;-80
2021/03/02 11:47:04;;;;;;;35.07;24.77;;;;;;;11.42;79.24;101908.59;253388;1111;104709;-80
2021/03/02 11:52:06;;;;;;;32.00;23.00;;;;;;;12.36;72.40;101915.55;253750;1112;104649;-82
2021/03/02 11:57:07;;;;;;;33.42;27.52;;;;;;;12.65;71.29;101916.66;253737;1110;104631;-80
2021/03/02 12:02:13;;;;;;;32.97;26.40;;;;;;;12.41;70.86;101916.31;253631;1112;104261;-79
2021/03/02 12:07:15;;;;;;;31.85;27.35;;;;;;;12.97;69.21;101901.61;253701;1111;104344;-79
2021/03/02 12:12:16;;;;;;;29.95;24.70;;;;;;;11.10;72.98;101920.73;253497;1112;104533;-79
2021/03/02 12:17:17;;;;;;;30.82;27.48;;;;;;;10.91;76.05;101914.86;253492;1110;104268;-80
2021/03/02 12:22:19;;;;;;;30.75;26.97;;;;;;;9.91;81.36;101922.52;253476;1111;104351;-78
2021/03/02 12:27:20;;;;;;;34.33;30.52;;;;;;;11.10;79.39;101901.18;255225;1111;104344;-78
2021/03/02 12:32:23;;;;;;;34.45;30.77;;;;;;;10.62;79.87;101900.22;256567;1112;104666;-78
2021/03/02 12:37:24;;;;;;;34.15;28.65;;;;;;;11.02;78.74;101892.42;257051;1112;104460;-79
2021/03/02 12:42:25;;;;;;;32.88;27.73;;;;;;;9.99;81.15;101891.34;254973;1112;104320;-79
2021/03/02 12:47:27;;;;;;;34.80;28.43;;;;;;;11.43;77.42;101898.77;254402;1111;104261;-80
2021/03/02 12:52:28;;;;;;;37.10;30.90;;;;;;;12.08;74.48;101873.41;253981;1112;104319;-80
2021/03/02 12:57:29;;;;;;;34.07;29.30;;;;;;;12.13;73.68;101884.87;255136;1111;104344;-79
2021/03/02 13:02:31;;;;;;;33.70;27.48;;;;;;;12.37;71.14;101883.41;254387;1112;104313;-79
2021/03/02 13:07:32;;;;;;;33.67;27.95;;;;;;;13.48;66.86;101879.69;254180;1111;104345;-79
2021/03/02 13:12:35;;;;;;;28.47;24.47;;;;;;;13.31;64.74;101887.30;254225;1112;104296;-78
2021/03/02 13:17:39;;;;;;;31.13;25.47;;;;;;;14.23;62.77;101877.49;255359;1112;104291;-80
2021/03/02 13:22:41;;;;;;;27.22;24.23;;;;;;;14.26;63.52;101872.02;254696;1112;104255;-80
2021/03/02 13:27:46;;;;;;;27.93;24.92;;;;;;;13.18;64.56;101874.23;253864;1112;104396;-78
2021/03/02 13:32:55;;;;;;;24.77;22.05;;;;;;;12.27;67.83;101876.55;254076;1112;104329;-78
2021/03/02 13:38:00;;;;;;;31.50;27.10;;;;;;;12.36;68.48;101875.44;253775;1112;104341;-79
2021/03/02 13:43:03;;;;;;;26.68;21.12;;;;;;;10.94;74.87;101882.77;253963;1112;104338;-78
2021/03/02 13:48:05;;;;;;;26.80;22.85;;;;;;;10.56;76.53;101873.66;254384;1111;104570;-80
2021/03/02 13:53:09;;;;;;;29.55;22.60;;;;;;;11.87;71.43;101854.23;253854;1112;104367;-80
2021/03/02 13:58:11;;;;;;;27.95;23.60;;;;;;;11.07;72.25;101864.77;254122;1112;104460;-80
2021/03/02 14:03:16;;;;;;;29.10;24.23;;;;;;;11.11;72.84;101857.58;254044;1111;306395;-82
2021/03/02 14:08:20;;;;;;;34.08;25.70;;;;;;;10.86;72.90;101859.81;254500;1112;104396;-80
2021/03/02 14:13:26;;;;;;;29.10;24.35;;;;;;;11.36;72.34;101846.41;253902;1111;104660;-80
2021/03/02 14:18:27;;;;;;;28.83;22.57;;;;;;;11.90;70.03;101847.95;254090;1111;104397;-79
2021/03/02 14:23:30;;;;;;;28.43;22.87;;;;;;;12.41;68.50;101861.05;253654;1111;104345;-79
2021/03/02 14:28:31;;;;;;;31.00;24.57;;;;;;;12.00;70.29;101843.30;253807;1112;104328;-78
2021/03/02 14:33:33;;;;;;;32.40;23.87;;;;;;;10.75;74.39;101852.00;253827;1111;104342;-80
2021/03/02 14:38:35;;;;;;;33.60;26.05;;;;;;;10.62;76.51;101841.55;253868;1111;104267;-78
2021/03/02 14:43:37;;;;;;;34.33;26.17;;;;;;;10.51;77.81;101856.83;253602;1112;104437;-79
2021/03/02 14:48:47;;;;;;;31.60;23.35;;;;;;;10.13;79.72;101848.50;254202;1112;104270;-79
2021/03/02 14:53:51;;;;;;;27.25;20.95;;;;;;;9.95;80.80;101854.11;254839;1112;104506;-79
2021/03/02 14:58:53;;;;;;;27.32;20.77;;;;;;;9.71;81.26;101862.41;254125;1111;104408;-82
2021/03/02 15:03:54;;;;;;;25.55;18.70;;;;;;;9.61;75.91;101860.75;253709;1112;104331;-79
2021/03/02 15:08:57;;;;;;;34.30;24.33;;;;;;;9.48;81.60;101870.66;253992;1111;104434;-79
2021/03/02 15:13:59;;;;;;;32.42;26.42;;;;;;;9.05;85.13;101885.32;254264;1111;104926;-81
2021/03/02 15:19:03;;;;;;;34.92;28.15;;;;;;;8.65;87.47;101883.03;254447;1112;104363;-80
2021/03/02 15:24:05;;;;;;;34.60;27.55;;;;;;;8.27;87.91;101882.39;254452;1111;104380;-79
2021/03/02 15:29:06;;;;;;;32.65;27.02;;;;;;;8.02;89.81;101884.31;254075;1111;104999;-79
2021/03/02 15:34:10;;;;;;;37.83;28.77;;;;;;;7.78;90.10;101896.80;253903;1112;104328;-79
2021/03/02 15:39:13;;;;;;;36.65;28.17;;;;;;;7.48;90.19;101901.33;254094;1111;104354;-80
2021/03/02 15:44:14;;;;;;;35.83;27.70;;;;;;;7.18;91.78;101907.59;254057;1112;104396;-80
2021/03/02 15:49:15;;;;;;;37.60;28.05;;;;;;;7.06;91.11;101911.14;254195;1112;104268;-79
2021/03/02 15:54:17;;;;;;;35.45;26.90;;;;;;;6.89;90.85;101920.89;254349;1112;104357;-78
2021/03/02 15:59:18;;;;;;;36.53;27.97;;;;;;;6.77;91.27;101927.94;254204;1111;104386;-80
2021/03/02 16:05:03;;;;;;;31.63;24.90;;;;;;;6.66;92.53;101932.37;255050;1112;104274;-81
2021/03/02 16:10:05;;;;;;;40.80;29.03;;;;;;;6.36;92.37;101949.97;253092;1115;104425;-82
2021/03/02 16:15:12;;;;;;;41.68;30.02;;;;;;;6.12;93.19;101950.78;253840;1112;104365;-82
2021/03/02 16:20:19;;;;;;;50.55;38.28;;;;;;;5.88;93.79;101945.37;254076;1111;104345;-80
2021/03/02 16:25:20;;;;;;;37.10;28.60;;;;;;;5.74;94.22;101950.59;255372;1112;104274;-80
2021/03/02 16:30:23;;;;;;;41.08;30.95;;;;;;;5.80;94.61;101948.87;256106;1111;104220;-78
2021/03/02 16:35:25;;;;;;;46.53;31.85;;;;;;;5.67;95.86;101959.41;255454;1112;104233;-80
2021/03/02 16:40:27;;;;;;;39.37;29.87;;;;;;;5.51;97.61;101960.18;254162;1112;104338;-81
2021/03/02 16:45:28;;;;;;;49.47;35.57;;;;;;;5.36;97.18;101961.85;253672;1112;104351;-82
2021/03/02 16:50:30;;;;;;;42.00;30.30;;;;;;;5.32;98.23;101964.45;256401;1111;104821;-80
2021/03/02 16:55:42;;;;;;;53.70;35.90;;;;;;;5.38;97.72;101972.43;256262;1112;104265;-80
2021/03/02 17:00:51;;;;;;;46.73;34.90;;;;;;;5.20;98.06;101976.73;254186;1112;104660;-81
2021/03/02 17:05:53;;;;;;;53.30;35.60;;;;;;;5.06;100.00;101975.73;253906;1111;104307;-82
2021/03/02 17:10:54;;;;;;;52.27;37.00;;;;;;;5.01;100.00;101988.00;253668;1111;104311;-79
2021/03/02 17:15:55;;;;;;;51.42;37.45;;;;;;;4.91;100.00;101989.68;253825;1111;104425;-80
2021/03/02 17:20:57;;;;;;;52.70;34.30;;;;;;;4.90;100.00;101988.81;253791;1112;104987;-80
2021/03/02 17:25:59;;;;;;;50.45;35.60;;;;;;;4.95;99.93;101987.08;253943;1112;112312;-80
2021/03/02 17:31:00;;;;;;;50.80;34.70;;;;;;;4.75;100.00;101984.28;253772;1111;105031;-77
2021/03/02 17:36:02;;;;;;;50.63;34.95;;;;;;;4.65;100.00;101986.81;253645;1112;104348;-80
2021/03/02 17:41:04;;;;;;;55.35;35.50;;;;;;;4.51;100.00;101990.17;253364;1111;104723;-81
2021/03/02 17:46:06;;;;;;;53.65;35.35;;;;;;;4.16;100.00;101998.57;253599;1112;104354;-81
2021/03/02 17:51:08;;;;;;;51.45;34.90;;;;;;;4.11;100.00;101990.63;254533;1111;104335;-81
2021/03/02 17:56:11;;;;;;;53.20;35.68;;;;;;;4.12;100.00;102002.92;254022;1112;104364;-81
2021/03/02 18:01:12;;;;;;;50.12;33.45;;;;;;;4.10;100.00;102001.14;254057;1111;104464;-80
2021/03/02 18:06:14;;;;;;;51.68;34.18;;;;;;;4.24;100.00;102002.20;253829;1112;104332;-80
2021/03/02 18:11:15;;;;;;;54.13;36.37;;;;;;;4.09;100.00;102005.55;254647;1111;104357;-79
2021/03/02 18:16:16;;;;;;;55.92;36.93;;;;;;;4.10;100.00;102015.23;256236;1110;104322;-80
2021/03/02 18:21:17;;;;;;;53.25;34.48;;;;;;;4.09;100.00;102017.83;259219;1111;104242;-78
2021/03/02 18:26:18;;;;;;;43.00;31.95;;;;;;;4.02;100.00;102024.80;256480;1111;104238;-80
2021/03/02 18:31:19;;;;;;;41.48;30.77;;;;;;;3.95;100.00;102023.82;255534;1112;104424;-80
2021/03/02 18:36:21;;;;;;;40.98;28.73;;;;;;;3.83;100.00;102027.20;255730;1112;104723;-79
2021/03/02 18:41:22;;;;;;;38.93;27.83;;;;;;;3.83;100.00;102032.48;254595;1112;104721;-81
2021/03/02 18:46:23;;;;;;;37.98;27.42;;;;;;;3.86;100.00;102039.55;253962;1111;104315;-81
2021/03/02 18:51:25;;;;;;;38.80;29.35;;;;;;;3.84;100.00;102041.27;256022;1111;104245;-79
2021/03/02 18:56:26;;;;;;;46.13;33.08;;;;;;;3.70;100.00;102045.45;256160;1111;104341;-80
2021/03/02 19:01:28;;;;;;;47.53;33.95;;;;;;;3.62;100.00;102048.86;254833;1111;104265;-79
2021/03/02 19:06:29;;;;;;;52.53;37.35;;;;;;;3.46;100.00;102036.29;253520;1112;104277;-79
2021/03/02 19:11:30;;;;;;;66.00;42.15;;;;;;;3.41;100.00;102036.24;253925;1111;104302;-79
2021/03/02 19:16:31;;;;;;;64.75;41.45;;;;;;;3.47;100.00;102040.70;253983;1112;104344;-79
2021/03/02 19:21:33;;;;;;;54.90;36.90;;;;;;;3.37;100.00;102037.04;254424;1111;104264;-80
2021/03/02 19:26:34;;;;;;;48.28;35.33;;;;;;;3.44;100.00;102038.04;254263;1111;105035;-80
2021/03/02 19:31:35;;;;;;;44.63;34.30;;;;;;;3.24;100.00;102038.61;254431;1112;104267;-79
2021/03/02 19:36:37;;;;;;;48.63;35.03;;;;;;;3.21;100.00;102030.63;254419;1112;104275;-80
2021/03/02 19:41:38;;;;;;;48.17;34.33;;;;;;;3.12;100.00;102031.38;253650;1112;104833;-79
2021/03/02 19:46:39;;;;;;;43.80;32.83;;;;;;;3.00;100.00;102039.95;254592;1112;104950;-81
2021/03/02 19:51:40;;;;;;;50.67;36.00;;;;;;;2.89;100.00;102036.21;253826;1112;104384;-79
2021/03/02 19:56:42;;;;;;;45.97;33.93;;;;;;;2.74;100.00;102041.23;253642;1112;104386;-80
2021/03/02 20:01:43;;;;;;;43.28;32.85;;;;;;;2.77;100.00;102043.89;253194;1111;104344;-81
2021/03/02 20:06:45;;;;;;;45.35;33.70;;;;;;;2.86;100.00;102044.95;252993;1111;104277;-79
2021/03/02 20:11:47;;;;;;;45.83;33.98;;;;;;;2.94;100.00;102046.84;253447;1111;104437;-81
2021/03/02 20:16:49;;;;;;;47.45;32.63;;;;;;;2.89;100.00;102043.24;253613;1111;104792;-80
2021/03/02 20:21:50;;;;;;;45.88;33.53;;;;;;;2.89;100.00;102040.61;254256;1112;104471;-79
2021/03/02 20:26:51;;;;;;;43.60;33.70;;;;;;;2.81;100.00;102045.75;253566;1112;104300;-81
2021/03/02 20:31:53;;;;;;;46.15;33.20;;;;;;;2.62;100.00;102039.23;253599;1111;104263;-78
2021/03/02 20:36:54;;;;;;;46.53;35.45;;;;;;;2.67;100.00;102033.21;253913;1112;104497;-79
2021/03/02 20:41:56;;;;;;;45.83;34.40;;;;;;;2.66;100.00;102034.06;253752;1112;104364;-81
2021/03/02 20:46:57;;;;;;;42.15;30.20;;;;;;;2.53;100.00;102039.95;253908;1111;104636;-79
2021/03/02 20:51:58;;;;;;;52.80;34.92;;;;;;;2.50;100.00;102050.41;253924;1112;104367;-80
2021/03/02 20:57:00;;;;;;;44.88;31.20;;;;;;;2.46;100.00;102053.85;253740;1112;104307;-79
2021/03/02 21:02:01;;;;;;;42.43;31.12;;;;;;;2.46;100.00;102062.62;253652;1111;104352;-79
2021/03/02 21:07:02;;;;;;;46.75;33.70;;;;;;;2.16;100.00;102060.25;253942;1112;104296;-79
2021/03/02 21:12:04;;;;;;;39.48;30.15;;;;;;;1.83;100.00;102061.28;254630;1112;104249;-79
2021/03/02 21:17:06;;;;;;;37.60;26.85;;;;;;;1.73;100.00;102061.06;254276;1112;104328;-79
2021/03/02 21:22:07;;;;;;;39.42;29.80;;;;;;;1.73;100.00;102058.44;256408;1110;104264;-81
2021/03/02 21:27:08;;;;;;;38.02;28.98;;;;;;;1.85;100.00;102064.81;254336;1112;104399;-81
2021/03/02 21:32:09;;;;;;;41.65;30.55;;;;;;;2.05;100.00;102063.52;254355;1111;104350;-80
2021/03/02 21:37:11;;;;;;;41.05;31.15;;;;;;;1.90;100.00;102076.35;253916;1112;104281;-81
2021/03/02 21:42:12;;;;;;;37.17;28.50;;;;;;;1.62;100.00;102072.17;253768;1109;104699;-79
2021/03/02 21:47:14;;;;;;;39.43;31.90;;;;;;;1.61;100.00;102079.19;253542;1112;104284;-82
2021/03/02 21:52:16;;;;;;;42.83;31.45;;;;;;;1.52;100.00;102071.94;253094;1112;104364;-79
2021/03/02 21:57:17;;;;;;;40.25;30.37;;;;;;;1.52;100.00;102071.06;253251;1111;104472;-79
2021/03/02 22:02:19;;;;;;;39.73;29.32;;;;;;;1.23;100.00;102079.11;253190;1112;104361;-82
2021/03/02 22:07:21;;;;;;;36.10;28.50;;;;;;;1.16;100.00;102077.17;253059;1112;104325;-82
2021/03/02 22:12:22;;;;;;;40.27;30.43;;;;;;;1.23;100.00;102073.86;253265;1111;104357;-76
2021/03/02 22:17:23;;;;;;;40.23;29.25;;;;;;;1.07;100.00;102060.32;252353;1111;114789;-77
2021/03/02 22:22:25;;;;;;;44.45;31.57;;;;;;;1.07;100.00;102065.58;252641;1111;114950;-75
2021/03/02 22:27:26;;;;;;;42.80;30.27;;;;;;;1.02;100.00;102067.20;252503;1109;114801;-75